Time;durP1;ratioP1;P1;durP2;ratioP2;P2;SDS_P1;SDS_P2;PMS_P1;PMS_P2;Temp;Humidity;BMP_temperature;BMP_pressure;BME280_temperature;BME280_humidity;BME280_pressure;Samples;Min_cycle;Max_cycle;Signal;HPM_P1;HPM_P2
2022/07/09 00:02:02;;;;;;;0.90;0.30;;;12.10;99.90;;;;;;5007462;28;20367;-68
2022/07/09 00:04:30;;;;;;;1.77;0.30;;;12.20;99.90;;;;;;5005670;28;20034;-67
2022/07/09 00:06:58;;;;;;;2.70;0.52;;;12.30;99.90;;;;;;5008866;28;20261;-67
2022/07/09 00:09:25;;;;;;;1.25;0.20;;;12.30;99.90;;;;;;5004919;28;20050;-68
2022/07/09 00:11:53;;;;;;;0.77;0.20;;;12.30;99.90;;;;;;5007286;28;20108;-68
2022/07/09 00:14:20;;;;;;;1.40;0.30;;;12.30;99.90;;;;;;5008841;28;20026;-67
2022/07/09 00:16:48;;;;;;;2.28;0.43;;;12.30;99.90;;;;;;5010476;28;20653;-68
2022/07/09 00:19:15;;;;;;;4.97;0.75;;;12.40;99.90;;;;;;5002399;28;20022;-67
2022/07/09 00:21:43;;;;;;;1.38;0.40;;;12.40;99.90;;;;;;4999110;28;20038;-67
2022/07/09 00:24:10;;;;;;;1.50;0.25;;;12.50;99.90;;;;;;5002784;28;20037;-66
2022/07/09 00:26:37;;;;;;;1.33;0.38;;;12.50;99.90;;;;;;5006937;28;20037;-67
2022/07/09 00:29:04;;;;;;;0.57;0.20;;;12.50;99.90;;;;;;5004751;28;20407;-67
2022/07/09 00:31:32;;;;;;;2.33;0.30;;;12.60;99.90;;;;;;5009607;28;20482;-67
2022/07/09 00:33:59;;;;;;;2.40;0.35;;;12.70;99.90;;;;;;5015412;28;20033;-66
2022/07/09 00:36:26;;;;;;;2.35;0.60;;;12.80;99.90;;;;;;5017154;28;20026;-67
2022/07/09 00:38:54;;;;;;;0.90;0.45;;;12.80;99.90;;;;;;5017292;28;20022;-65
2022/07/09 00:41:21;;;;;;;0.90;0.20;;;12.90;99.90;;;;;;5017902;28;20036;-65
2022/07/09 00:43:50;;;;;;;2.33;0.40;;;13.00;99.90;;;;;;5017531;28;20044;-65
2022/07/09 00:46:18;;;;;;;1.17;0.20;;;12.90;99.90;;;;;;5023153;28;20068;-66
2022/07/09 00:48:46;;;;;;;2.17;0.70;;;13.00;99.90;;;;;;5003579;28;20049;-67
2022/07/09 00:51:14;;;;;;;1.38;0.30;;;13.10;99.90;;;;;;5010056;28;20026;-66
2022/07/09 00:53:41;;;;;;;1.42;0.40;;;13.10;99.90;;;;;;5008726;28;20025;-66
2022/07/09 00:56:10;;;;;;;3.13;0.40;;;13.40;99.90;;;;;;5005433;28;20541;-66
2022/07/09 00:58:38;;;;;;;1.65;0.50;;;13.50;99.90;;;;;;5008317;28;20022;-66
2022/07/09 01:01:07;;;;;;;1.20;0.20;;;13.30;99.90;;;;;;5007509;28;20034;-67
2022/07/09 01:03:34;;;;;;;0.65;0.35;;;13.40;99.90;;;;;;5008913;28;20037;-67
2022/07/09 01:06:02;;;;;;;2.03;0.50;;;13.30;99.90;;;;;;5007637;28;20033;-66
2022/07/09 01:08:29;;;;;;;2.03;0.60;;;13.30;99.90;;;;;;5009907;28;20029;-65
2022/07/09 01:10:56;;;;;;;1.45;0.30;;;13.50;99.90;;;;;;5010032;28;20104;-66
2022/07/09 01:13:24;;;;;;;2.10;0.30;;;13.60;99.90;;;;;;4995936;28;20030;-66
2022/07/09 01:15:52;;;;;;;3.65;0.50;;;13.60;99.90;;;;;;5008900;28;20025;-67
2022/07/09 01:18:19;;;;;;;2.40;0.32;;;13.80;99.90;;;;;;5000947;28;20054;-67
2022/07/09 01:20:46;;;;;;;2.58;0.22;;;13.90;99.90;;;;;;5005473;28;20034;-67
2022/07/09 01:23:14;;;;;;;1.00;0.10;;;13.80;99.90;;;;;;5003697;28;20018;-66
2022/07/09 01:25:46;;;;;;;1.10;0.20;;;13.80;99.90;;;;;;5002665;28;20030;-65
2022/07/09 01:28:13;;;;;;;2.05;0.40;;;13.90;99.90;;;;;;5002602;28;20042;-66
2022/07/09 01:30:41;;;;;;;2.05;0.30;;;14.00;99.90;;;;;;5007154;28;20038;-66
2022/07/09 01:33:09;;;;;;;1.33;0.20;;;14.20;99.90;;;;;;5010759;28;20164;-66
2022/07/09 01:35:36;;;;;;;0.45;0.17;;;14.20;99.90;;;;;;5012965;28;20026;-66
2022/07/09 01:38:03;;;;;;;2.35;0.20;;;14.20;99.90;;;;;;5011259;28;20502;-66
2022/07/09 01:40:31;;;;;;;1.55;0.50;;;14.20;99.90;;;;;;5005183;28;20038;-66
2022/07/09 01:42:58;;;;;;;1.33;0.20;;;14.40;99.90;;;;;;5001576;28;20121;-66
2022/07/09 01:45:25;;;;;;;1.27;0.20;;;14.50;99.90;;;;;;5003583;28;20034;-67
2022/07/09 01:47:52;;;;;;;0.98;0.35;;;14.50;99.90;;;;;;5001480;28;20133;-67
2022/07/09 01:50:20;;;;;;;1.75;0.30;;;14.60;99.90;;;;;;5005209;28;20026;-66
2022/07/09 01:52:47;;;;;;;0.77;0.10;;;14.50;99.90;;;;;;5002831;28;20027;-66
2022/07/09 01:55:14;;;;;;;0.65;0.30;;;14.60;99.90;;;;;;5010378;28;20018;-66
2022/07/09 01:57:42;;;;;;;0.45;0.20;;;14.70;99.90;;;;;;5015593;28;20457;-66
2022/07/09 02:00:10;;;;;;;2.42;0.30;;;14.70;99.90;;;;;;4999815;28;20092;-66
2022/07/09 02:02:37;;;;;;;1.98;0.20;;;14.70;99.90;;;;;;5008941;28;20034;-65
2022/07/09 02:05:05;;;;;;;2.22;0.38;;;14.70;99.90;;;;;;5008660;28;20026;-66
2022/07/09 02:07:32;;;;;;;0.65;0.20;;;14.90;99.90;;;;;;5009899;28;20097;-66
2022/07/09 02:10:00;;;;;;;0.95;0.20;;;14.90;99.90;;;;;;5002308;28;20068;-66
2022/07/09 02:12:27;;;;;;;1.20;0.20;;;14.90;99.90;;;;;;5002059;28;20045;-66
2022/07/09 02:14:55;;;;;;;1.65;0.20;;;15.20;99.90;;;;;;4997232;28;20089;-66
2022/07/09 02:17:22;;;;;;;1.10;0.20;;;15.20;99.90;;;;;;5008903;28;20124;-66
2022/07/09 02:19:49;;;;;;;0.60;0.17;;;15.40;99.90;;;;;;5001032;28;20054;-66
2022/07/09 02:22:16;;;;;;;2.55;0.20;;;15.60;99.90;;;;;;5002035;28;20045;-67
2022/07/09 02:24:44;;;;;;;0.32;0.10;;;15.70;99.90;;;;;;5009539;28;20030;-66
2022/07/09 02:27:11;;;;;;;0.88;0.17;;;16.10;99.90;;;;;;4999556;28;20105;-67
2022/07/09 02:29:38;;;;;;;1.38;0.20;;;16.40;99.90;;;;;;5003772;28;20030;-66
2022/07/09 02:32:06;;;;;;;1.30;0.22;;;16.60;99.90;;;;;;5006473;28;20533;-67
2022/07/09 02:34:33;;;;;;;1.63;0.30;;;16.40;99.90;;;;;;5003349;28;20030;-67
2022/07/09 02:37:01;;;;;;;2.50;0.30;;;16.60;99.80;;;;;;5009388;28;20036;-67
2022/07/09 02:39:28;;;;;;;1.65;0.32;;;16.50;99.70;;;;;;5008327;28;20034;-67
2022/07/09 02:41:55;;;;;;;0.70;0.15;;;16.60;99.70;;;;;;5004128;28;20030;-67
2022/07/09 02:44:22;;;;;;;0.35;0.10;;;16.60;99.60;;;;;;5009800;28;20049;-67
2022/07/09 02:46:50;;;;;;;0.47;0.30;;;16.90;99.80;;;;;;5012121;28;20643;-66
2022/07/09 02:49:17;;;;;;;0.85;0.17;;;16.60;99.60;;;;;;5009769;28;20040;-67
2022/07/09 02:51:45;;;;;;;1.58;0.10;;;16.10;99.90;;;;;;5004304;28;20065;-67
2022/07/09 02:54:12;;;;;;;1.67;0.28;;;16.40;99.70;;;;;;5010977;28;20380;-67
2022/07/09 02:56:39;;;;;;;2.10;0.30;;;16.90;99.10;;;;;;5009968;28;20470;-67
2022/07/09 02:59:07;;;;;;;3.05;0.73;;;16.50;99.50;;;;;;5013347;28;20069;-67
2022/07/09 03:01:34;;;;;;;1.08;0.50;;;16.70;99.40;;;;;;5009348;28;20021;-66
2022/07/09 03:04:01;;;;;;;3.08;0.20;;;16.90;99.40;;;;;;5013642;28;20068;-66
2022/07/09 03:06:28;;;;;;;0.25;0.10;;;17.20;99.30;;;;;;5007595;28;20034;-66
2022/07/09 03:08:56;;;;;;;0.68;0.17;;;16.50;99.30;;;;;;5000742;28;20034;-67
2022/07/09 03:11:23;;;;;;;1.25;0.40;;;16.50;99.70;;;;;;5009598;28;20029;-68
2022/07/09 03:13:50;;;;;;;1.40;0.10;;;16.60;99.40;;;;;;4997686;28;20038;-67
2022/07/09 03:16:17;;;;;;;0.10;0.00;;;16.40;99.20;;;;;;5009249;28;20037;-66
2022/07/09 03:18:44;;;;;;;1.60;0.20;;;16.30;99.50;;;;;;5008918;28;20025;-67
2022/07/09 03:21:12;;;;;;;0.75;0.20;;;16.30;99.40;;;;;;4999333;28;20041;-67
2022/07/09 03:23:39;;;;;;;0.70;0.10;;;16.50;99.30;;;;;;4999873;28;20037;-66
2022/07/09 03:26:07;;;;;;;1.05;0.20;;;16.20;99.90;;;;;;5011281;28;20034;-66
2022/07/09 03:28:35;;;;;;;1.17;0.10;;;16.00;99.70;;;;;;5014489;28;20033;-66
2022/07/09 03:31:02;;;;;;;0.75;0.10;;;16.20;99.50;;;;;;5017675;28;20029;-65
2022/07/09 03:33:30;;;;;;;1.05;0.30;;;16.20;99.40;;;;;;5020644;28;20045;-65
2022/07/09 03:35:57;;;;;;;0.43;0.10;;;16.10;99.40;;;;;;5010300;28;20022;-65
2022/07/09 03:38:25;;;;;;;1.77;0.45;;;16.30;99.50;;;;;;5013523;28;20042;-65
2022/07/09 03:40:53;;;;;;;1.40;0.10;;;16.20;99.90;;;;;;5020216;28;20029;-65
2022/07/09 03:43:20;;;;;;;2.30;0.20;;;16.10;99.80;;;;;;5020625;28;20311;-65
2022/07/09 03:45:47;;;;;;;1.17;0.10;;;16.10;99.90;;;;;;5017683;28;20053;-65
2022/07/09 03:48:17;;;;;;;0.30;0.03;;;16.10;99.80;;;;;;5023475;28;20140;-65
2022/07/09 03:50:44;;;;;;;0.73;0.10;;;16.30;99.90;;;;;;5026319;28;20029;-65
2022/07/09 03:53:12;;;;;;;1.80;0.20;;;16.30;99.40;;;;;;5022789;28;20033;-65
2022/07/09 03:55:39;;;;;;;1.17;0.10;;;16.20;99.90;;;;;;5023321;28;20037;-66
2022/07/09 03:58:06;;;;;;;0.95;0.10;;;16.30;99.90;;;;;;5029670;28;20010;-66
2022/07/09 04:00:34;;;;;;;2.80;0.20;;;16.20;99.80;;;;;;5026829;28;20089;-65
2022/07/09 04:03:01;;;;;;;3.00;0.20;;;16.10;99.70;;;;;;5027902;28;20117;-65
2022/07/09 04:05:28;;;;;;;0.73;0.10;;;16.10;99.70;;;;;;5021404;28;20034;-64
2022/07/09 04:07:56;;;;;;;0.77;0.10;;;16.20;99.90;;;;;;5020569;28;20037;-65
2022/07/09 04:10:23;;;;;;;1.17;0.10;;;16.00;99.80;;;;;;5022892;28;20030;-64
2022/07/09 04:12:50;;;;;;;0.55;0.10;;;15.70;99.90;;;;;;5022680;28;20045;-65
2022/07/09 04:15:17;;;;;;;1.55;0.10;;;15.70;99.90;;;;;;5027314;28;20007;-65
2022/07/09 04:17:45;;;;;;;0.30;0.10;;;15.90;99.90;;;;;;5032518;28;20065;-65
2022/07/09 04:20:12;;;;;;;0.68;0.20;;;15.80;99.90;;;;;;5029864;28;20022;-65
2022/07/09 04:22:39;;;;;;;0.75;0.20;;;15.90;99.90;;;;;;5025951;28;20036;-65
2022/07/09 04:25:07;;;;;;;0.38;0.15;;;15.80;99.90;;;;;;5032089;28;20037;-65
2022/07/09 04:27:35;;;;;;;0.30;0.15;;;15.70;99.90;;;;;;5033276;28;20010;-64
2022/07/09 04:30:03;;;;;;;0.30;0.10;;;15.60;99.90;;;;;;5028270;28;20017;-65
2022/07/09 04:32:30;;;;;;;2.33;0.20;;;15.70;99.90;;;;;;5028179;28;20022;-66
2022/07/09 04:34:57;;;;;;;0.10;0.10;;;15.80;99.90;;;;;;5037191;28;20057;-65
2022/07/09 04:37:25;;;;;;;4.13;0.22;;;15.80;99.90;;;;;;5031287;28;20022;-66
2022/07/09 04:39:52;;;;;;;3.13;1.25;;;15.90;99.90;;;;;;5032428;28;20085;-66
2022/07/09 04:42:20;;;;;;;3.10;1.95;;;16.00;99.90;;;;;;5026962;28;20022;-66
2022/07/09 04:44:47;;;;;;;5.68;2.92;;;16.00;99.90;;;;;;5026086;28;20026;-66
2022/07/09 04:47:14;;;;;;;4.47;1.60;;;15.80;99.90;;;;;;5025806;28;20048;-66
2022/07/09 04:49:42;;;;;;;1.85;0.50;;;15.80;99.90;;;;;;5029262;28;20049;-66
2022/07/09 04:52:09;;;;;;;1.45;0.60;;;15.80;99.90;;;;;;5032954;28;20026;-66
2022/07/09 04:54:36;;;;;;;2.10;0.55;;;15.90;99.90;;;;;;5025284;28;20145;-65
2022/07/09 04:57:04;;;;;;;7.88;0.60;;;15.70;99.90;;;;;;5031819;28;20002;-65
2022/07/09 04:59:31;;;;;;;6.38;1.10;;;15.70;99.90;;;;;;5031711;28;20029;-65
2022/07/09 05:01:58;;;;;;;1.77;0.50;;;15.60;99.90;;;;;;5020729;28;20021;-65
2022/07/09 05:04:25;;;;;;;6.00;1.27;;;15.50;99.90;;;;;;5028320;28;20097;-65
2022/07/09 05:06:53;;;;;;;4.32;0.75;;;15.20;99.90;;;;;;5041233;28;20014;-65
2022/07/09 05:09:20;;;;;;;3.88;0.50;;;15.00;99.90;;;;;;5031858;28;20010;-65
2022/07/09 05:11:47;;;;;;;5.80;1.13;;;14.90;99.90;;;;;;5041144;28;20006;-66
2022/07/09 05:14:15;;;;;;;8.20;1.60;;;14.80;99.90;;;;;;5033299;28;20035;-65
2022/07/09 05:16:44;;;;;;;7.80;2.60;;;14.80;99.90;;;;;;5021451;28;20013;-65
2022/07/09 05:19:15;;;;;;;6.60;3.30;;;14.80;99.90;;;;;;5026347;28;20018;-65
2022/07/09 05:21:42;;;;;;;8.88;3.95;;;14.70;99.90;;;;;;5040982;28;20014;-65
2022/07/09 05:24:10;;;;;;;6.55;3.42;;;14.70;99.90;;;;;;5034359;28;20039;-65
2022/07/09 05:26:37;;;;;;;4.03;2.33;;;14.70;99.90;;;;;;5021905;28;20077;-66
2022/07/09 05:29:05;;;;;;;6.22;1.30;;;14.70;99.90;;;;;;5026407;28;20014;-66
2022/07/09 05:31:32;;;;;;;5.35;1.15;;;14.70;99.90;;;;;;5040248;28;20014;-66
2022/07/09 05:34:00;;;;;;;3.47;1.00;;;14.60;99.90;;;;;;5034186;28;20045;-66
2022/07/09 05:36:30;;;;;;;3.10;1.10;;;14.60;99.90;;;;;;5030249;28;20018;-66
2022/07/09 05:38:59;;;;;;;5.05;1.10;;;14.60;99.90;;;;;;5021080;28;20027;-68
2022/07/09 05:41:27;;;;;;;2.30;0.47;;;14.60;99.90;;;;;;5011345;28;20031;-67
2022/07/09 05:43:55;;;;;;;3.85;0.90;;;14.60;99.90;;;;;;5023862;28;20029;-67
2022/07/09 05:46:22;;;;;;;1.98;0.77;;;14.60;99.90;;;;;;5019387;28;20096;-67
2022/07/09 05:48:49;;;;;;;1.95;0.70;;;14.50;99.90;;;;;;5015794;28;20072;-67
2022/07/09 05:51:16;;;;;;;5.32;1.00;;;14.50;99.90;;;;;;5014635;28;20162;-67
2022/07/09 05:53:44;;;;;;;3.90;0.88;;;14.50;99.90;;;;;;5020012;28;20038;-68
2022/07/09 05:56:12;;;;;;;4.40;1.42;;;14.50;99.90;;;;;;5017663;28;20060;-68
2022/07/09 05:58:39;;;;;;;2.13;0.50;;;14.50;99.90;;;;;;5028193;28;20051;-67
2022/07/09 06:01:07;;;;;;;2.58;0.43;;;14.30;99.90;;;;;;5027223;28;20033;-67
2022/07/09 06:03:34;;;;;;;3.70;0.82;;;14.30;99.90;;;;;;5027652;28;20070;-67
2022/07/09 06:06:02;;;;;;;2.92;0.63;;;14.30;99.90;;;;;;5030053;28;20042;-67
2022/07/09 06:08:29;;;;;;;2.42;0.73;;;14.20;99.90;;;;;;5032232;28;20052;-67
2022/07/09 06:10:56;;;;;;;3.70;0.30;;;14.20;99.90;;;;;;5035003;28;20018;-66
2022/07/09 06:13:23;;;;;;;3.03;0.52;;;14.10;99.90;;;;;;5027593;28;20025;-66
2022/07/09 06:15:52;;;;;;;1.33;0.50;;;14.20;99.90;;;;;;5020636;28;20183;-67
2022/07/09 06:18:19;;;;;;;2.35;0.40;;;14.10;99.90;;;;;;5028907;28;20021;-67
2022/07/09 06:20:47;;;;;;;1.65;0.45;;;14.10;99.90;;;;;;5027628;28;20046;-65
2022/07/09 06:23:14;;;;;;;1.80;0.60;;;14.20;99.90;;;;;;5033824;28;20021;-65
2022/07/09 06:25:42;;;;;;;0.90;0.30;;;14.20;99.90;;;;;;5029967;28;20105;-66
2022/07/09 06:28:09;;;;;;;1.38;0.30;;;14.20;99.90;;;;;;5034730;28;20017;-65
2022/07/09 06:30:37;;;;;;;1.15;0.40;;;14.20;99.90;;;;;;5037672;28;20017;-65
2022/07/09 06:33:04;;;;;;;2.40;0.60;;;14.20;99.90;;;;;;5033302;28;20015;-66
2022/07/09 06:35:32;;;;;;;1.00;0.50;;;14.20;99.90;;;;;;5025128;28;20029;-66
2022/07/09 06:38:00;;;;;;;4.30;0.60;;;14.10;99.90;;;;;;5034656;28;20010;-66
2022/07/09 06:40:28;;;;;;;4.00;0.70;;;14.00;99.90;;;;;;5031761;28;20016;-65
2022/07/09 06:42:55;;;;;;;3.78;1.00;;;14.00;99.90;;;;;;5035432;28;20037;-65
2022/07/09 06:45:22;;;;;;;2.03;0.60;;;13.90;99.90;;;;;;5033332;28;20041;-66
2022/07/09 06:47:49;;;;;;;2.78;0.60;;;13.90;99.90;;;;;;5033794;28;20057;-65
2022/07/09 06:50:17;;;;;;;2.63;1.10;;;13.80;99.90;;;;;;5031267;28;20029;-65
2022/07/09 06:52:44;;;;;;;20.02;8.35;;;13.70;99.90;;;;;;5036425;28;20081;-66
2022/07/09 06:55:11;;;;;;;13.68;7.97;;;13.70;99.90;;;;;;5031838;28;20041;-66
2022/07/09 06:57:39;;;;;;;12.43;6.85;;;13.70;99.90;;;;;;5034459;28;20010;-65
2022/07/09 07:00:07;;;;;;;12.85;8.10;;;13.60;99.90;;;;;;5036560;28;20018;-65
2022/07/09 07:02:35;;;;;;;9.63;5.20;;;13.50;99.90;;;;;;5032842;28;20029;-66
2022/07/09 07:05:02;;;;;;;7.43;2.80;;;13.40;99.90;;;;;;5018949;28;20054;-67
2022/07/09 07:07:29;;;;;;;5.70;1.60;;;13.40;99.90;;;;;;5018892;28;20015;-67
2022/07/09 07:09:56;;;;;;;5.15;1.73;;;13.30;99.90;;;;;;5024756;28;20066;-67
2022/07/09 07:12:24;;;;;;;3.45;1.20;;;13.30;99.90;;;;;;5018019;28;20010;-67
2022/07/09 07:14:51;;;;;;;4.05;1.23;;;13.30;99.90;;;;;;5030234;28;20053;-66
2022/07/09 07:17:18;;;;;;;4.22;1.17;;;13.20;99.90;;;;;;5019326;28;20037;-66
2022/07/09 07:19:46;;;;;;;5.25;1.33;;;13.20;99.90;;;;;;5029736;28;20010;-66
2022/07/09 07:22:13;;;;;;;4.53;1.45;;;13.10;99.90;;;;;;5038345;28;20010;-67
2022/07/09 07:24:40;;;;;;;9.95;3.33;;;13.00;99.90;;;;;;5028320;28;20037;-66
2022/07/09 07:27:08;;;;;;;4.57;1.67;;;12.90;99.90;;;;;;5026361;28;20006;-66
2022/07/09 07:29:35;;;;;;;9.02;3.78;;;12.90;99.90;;;;;;5019502;28;20018;-66
2022/07/09 07:32:02;;;;;;;6.63;2.10;;;12.90;99.90;;;;;;5018034;28;20021;-67
2022/07/09 07:34:30;;;;;;;7.13;2.90;;;12.90;99.90;;;;;;5028456;28;20024;-67
2022/07/09 07:36:57;;;;;;;3.80;1.67;;;13.00;99.90;;;;;;5038486;28;20037;-66
2022/07/09 07:39:26;;;;;;;6.18;2.33;;;12.90;99.90;;;;;;5037089;28;20015;-66
2022/07/09 07:41:53;;;;;;;10.82;3.85;;;12.80;99.90;;;;;;5038535;28;20014;-66
2022/07/09 07:44:22;;;;;;;8.20;3.47;;;12.80;99.90;;;;;;5023317;28;20053;-66
2022/07/09 07:46:50;;;;;;;13.18;5.97;;;12.70;99.90;;;;;;5020789;28;20545;-66
2022/07/09 07:49:17;;;;;;;13.85;5.93;;;12.70;99.90;;;;;;5027463;28;20022;-66
2022/07/09 07:51:45;;;;;;;12.70;5.68;;;12.80;99.90;;;;;;5031055;28;20045;-66
2022/07/09 07:54:12;;;;;;;10.43;5.25;;;12.80;99.90;;;;;;5026781;28;20283;-64
2022/07/09 07:56:41;;;;;;;15.25;5.82;;;12.80;99.90;;;;;;5033247;28;20034;-65
2022/07/09 07:59:08;;;;;;;10.80;4.95;;;12.80;99.90;;;;;;5025297;28;20014;-66
2022/07/09 08:01:35;;;;;;;5.97;3.15;;;12.80;99.90;;;;;;5033677;28;20014;-66
2022/07/09 08:04:03;;;;;;;4.80;2.40;;;12.70;99.90;;;;;;5024642;28;20064;-66
2022/07/09 08:06:30;;;;;;;5.63;2.28;;;12.70;99.90;;;;;;5028283;28;20034;-66
2022/07/09 08:08:57;;;;;;;5.85;2.70;;;12.60;99.90;;;;;;5035572;28;20046;-66
2022/07/09 08:11:24;;;;;;;4.60;2.42;;;12.70;99.90;;;;;;5028433;28;20014;-66
2022/07/09 08:13:52;;;;;;;3.80;2.45;;;12.70;99.90;;;;;;5029136;28;20029;-66
2022/07/09 08:16:20;;;;;;;5.60;2.38;;;12.80;99.90;;;;;;5030539;28;20018;-66
2022/07/09 08:18:47;;;;;;;5.72;2.72;;;12.80;99.90;;;;;;5027641;28;20034;-66
2022/07/09 08:21:15;;;;;;;5.30;2.92;;;12.70;99.90;;;;;;5035664;28;20038;-66
2022/07/09 08:23:51;;;;;;;5.30;3.38;;;12.80;99.90;;;;;;5028393;28;20026;-67
2022/07/09 08:26:20;;;;;;;5.70;3.45;;;12.70;99.90;;;;;;5024209;28;20026;-67
2022/07/09 08:28:48;;;;;;;5.97;3.47;;;12.70;99.90;;;;;;5022936;28;20022;-67
2022/07/09 08:31:19;;;;;;;6.25;2.75;;;12.70;99.90;;;;;;5018262;28;20053;-68
2022/07/09 08:33:47;;;;;;;4.53;2.53;;;12.60;99.90;;;;;;5012500;28;20026;-67
2022/07/09 08:36:15;;;;;;;5.85;3.72;;;12.50;99.90;;;;;;5017610;28;20030;-68
2022/07/09 08:38:43;;;;;;;5.15;2.97;;;12.50;99.90;;;;;;5026576;28;20044;-67
2022/07/09 08:41:11;;;;;;;4.85;2.50;;;12.60;99.90;;;;;;5022908;28;20029;-68
2022/07/09 08:43:39;;;;;;;4.63;2.60;;;12.60;99.90;;;;;;5017968;28;20514;-67
2022/07/09 08:46:07;;;;;;;5.38;2.85;;;12.50;99.90;;;;;;5030838;28;20102;-66
2022/07/09 08:48:35;;;;;;;6.72;3.25;;;12.60;99.90;;;;;;5029496;28;20402;-67
2022/07/09 08:51:03;;;;;;;9.93;6.43;;;12.50;99.90;;;;;;5034310;28;20029;-66
2022/07/09 08:53:31;;;;;;;17.42;13.60;;;12.40;99.90;;;;;;5023956;28;20030;-66
2022/07/09 08:55:58;;;;;;;7.82;5.70;;;12.40;99.90;;;;;;5017986;28;20028;-66
2022/07/09 08:58:26;;;;;;;8.55;6.40;;;12.30;99.90;;;;;;5036615;28;20030;-66
2022/07/09 09:00:53;;;;;;;15.90;7.97;;;12.30;99.90;;;;;;5033739;28;20033;-67
2022/07/09 09:03:20;;;;;;;42.35;26.42;;;12.40;99.90;;;;;;5019477;28;20026;-66
2022/07/09 09:06:05;;;;;;;21.65;13.63;;;12.40;99.90;;;;;;5027729;28;20022;-66
2022/07/09 09:08:36;;;;;;;22.77;15.02;;;12.30;99.90;;;;;;5014724;28;20508;-66
2022/07/09 09:11:09;;;;;;;25.85;14.68;;;12.30;99.90;;;;;;5015178;28;20034;-66
2022/07/09 09:13:44;;;;;;;47.25;22.70;;;12.30;99.90;;;;;;5023256;28;20053;-67
2022/07/09 09:16:13;;;;;;;15.93;8.75;;;12.20;99.90;;;;;;5029122;28;20038;-67
2022/07/09 09:18:46;;;;;;;18.27;9.38;;;12.20;99.90;;;;;;5028491;28;20018;-68
2022/07/09 09:21:14;;;;;;;19.85;12.98;;;12.10;99.90;;;;;;5018710;28;20038;-67
2022/07/09 09:23:45;;;;;;;17.75;9.10;;;12.10;99.90;;;;;;5023153;28;20033;-69
2022/07/09 09:26:15;;;;;;;11.43;8.35;;;12.10;99.90;;;;;;5018627;28;20676;-67
2022/07/09 09:28:53;;;;;;;21.40;12.90;;;12.00;99.90;;;;;;5024083;28;20022;-67
2022/07/09 09:31:28;;;;;;;24.55;15.43;;;12.00;99.90;;;;;;5038783;28;20018;-68
2022/07/09 09:34:13;;;;;;;28.23;22.38;;;12.10;99.90;;;;;;5023921;28;20022;-67
2022/07/09 09:36:59;;;;;;;32.28;28.67;;;12.00;99.90;;;;;;5028975;28;20074;-67
2022/07/09 09:39:29;;;;;;;27.55;24.65;;;12.00;99.90;;;;;;5023924;28;20030;-67
2022/07/09 09:42:00;;;;;;;23.88;16.45;;;11.90;99.90;;;;;;5031733;28;20056;-67
2022/07/09 09:44:37;;;;;;;31.98;19.08;;;11.80;99.90;;;;;;5030917;28;20242;-68
2022/07/09 09:47:07;;;;;;;19.05;11.57;;;11.70;99.90;;;;;;5025477;28;20034;-68
2022/07/09 09:49:37;;;;;;;19.75;15.73;;;11.50;99.90;;;;;;5030189;28;20021;-66
2022/07/09 09:52:11;;;;;;;33.33;25.83;;;11.60;99.90;;;;;;5032829;28;20030;-67
2022/07/09 09:54:42;;;;;;;14.60;10.55;;;11.70;99.90;;;;;;5018872;28;20030;-68
2022/07/09 09:57:13;;;;;;;34.17;30.60;;;11.70;99.90;;;;;;5028997;28;20105;-68
2022/07/09 09:59:44;;;;;;;31.30;28.15;;;11.80;99.90;;;;;;5033069;28;20022;-67
2022/07/09 10:02:12;;;;;;;32.70;29.30;;;11.80;99.90;;;;;;5031463;28;20047;-68
2022/07/09 10:04:44;;;;;;;31.70;28.45;;;11.70;99.90;;;;;;5028110;28;20042;-67
2022/07/09 10:07:16;;;;;;;16.65;13.18;;;11.60;99.90;;;;;;5028166;28;20041;-67
2022/07/09 10:10:06;;;;;;;10.90;8.55;;;11.50;99.90;;;;;;5037711;28;20017;-66
2022/07/09 10:12:37;;;;;;;13.52;11.90;;;11.60;99.90;;;;;;5036915;28;20034;-66
2022/07/09 10:15:36;;;;;;;34.28;30.58;;;11.60;99.90;;;;;;5024862;28;20044;-67
2022/07/09 10:18:12;;;;;;;23.10;17.08;;;11.50;99.90;;;;;;5008665;28;20043;-67
2022/07/09 10:20:44;;;;;;;11.88;8.73;;;11.50;99.90;;;;;;5037113;28;20030;-67
2022/07/09 10:23:24;;;;;;;13.38;8.55;;;11.40;99.90;;;;;;5037844;28;20025;-67
2022/07/09 10:25:55;;;;;;;46.28;39.08;;;11.30;99.90;;;;;;5036295;28;20041;-67
2022/07/09 10:28:26;;;;;;;42.40;37.25;;;11.20;99.90;;;;;;5036346;28;20109;-66
2022/07/09 10:30:53;;;;;;;34.30;28.92;;;11.10;99.90;;;;;;5031950;28;20021;-67
2022/07/09 10:33:33;;;;;;;14.43;9.90;;;11.10;99.90;;;;;;5036893;28;20018;-67
2022/07/09 10:36:11;;;;;;;13.10;9.20;;;11.10;99.90;;;;;;5026989;28;20053;-67
2022/07/09 10:38:38;;;;;;;13.32;6.88;;;11.00;99.90;;;;;;5034252;28;20018;-67
2022/07/09 10:41:06;;;;;;;13.65;6.95;;;11.00;99.90;;;;;;5035154;28;20013;-67
2022/07/09 10:43:49;;;;;;;17.17;11.45;;;11.00;99.90;;;;;;5037145;28;20006;-67
2022/07/09 10:46:17;;;;;;;11.88;10.45;;;11.00;99.90;;;;;;5022473;28;20062;-68
2022/07/09 10:48:48;;;;;;;33.03;26.73;;;11.00;99.90;;;;;;5029515;28;20104;-68
2022/07/09 10:51:23;;;;;;;20.80;16.48;;;11.00;99.90;;;;;;5035366;28;20018;-67
2022/07/09 10:53:50;;;;;;;11.30;7.40;;;10.90;99.90;;;;;;5020449;28;20052;-68
2022/07/09 10:56:21;;;;;;;21.73;17.27;;;11.00;99.90;;;;;;5022748;28;20021;-68
2022/07/09 10:58:50;;;;;;;50.60;42.22;;;10.90;99.90;;;;;;5031076;28;20034;-68
2022/07/09 11:01:23;;;;;;;28.15;24.80;;;10.80;99.90;;;;;;5037300;28;20093;-68
2022/07/09 11:03:53;;;;;;;16.23;11.80;;;10.90;99.90;;;;;;5032444;28;20026;-66
2022/07/09 11:06:21;;;;;;;31.20;26.58;;;10.90;99.90;;;;;;5022705;28;20219;-66
2022/07/09 11:08:48;;;;;;;11.45;7.30;;;10.80;99.90;;;;;;5036174;28;20033;-66
2022/07/09 11:11:22;;;;;;;22.17;19.90;;;10.80;99.90;;;;;;5038572;28;20010;-67
2022/07/09 11:13:57;;;;;;;5.38;3.60;;;10.70;99.90;;;;;;5038296;28;20010;-67
2022/07/09 11:16:26;;;;;;;7.53;4.15;;;10.70;99.90;;;;;;5024203;28;20046;-66
2022/07/09 11:18:54;;;;;;;10.15;5.20;;;10.70;99.90;;;;;;5018893;28;20049;-67
2022/07/09 11:21:25;;;;;;;5.70;2.88;;;10.80;99.90;;;;;;5034968;28;20025;-67
2022/07/09 11:23:52;;;;;;;6.10;2.55;;;10.80;99.90;;;;;;5036977;28;20006;-67
2022/07/09 11:26:20;;;;;;;4.68;2.80;;;10.70;99.90;;;;;;5030932;28;20071;-67
2022/07/09 11:28:47;;;;;;;3.78;2.28;;;10.70;99.90;;;;;;5036263;28;20082;-66
2022/07/09 11:31:17;;;;;;;5.18;2.72;;;10.70;99.90;;;;;;5028751;28;20049;-66
2022/07/09 11:36:48;;;;;;;23.40;16.75;;;10.60;99.90;;;;;;5028713;28;20032;-67
2022/07/09 11:39:30;;;;;;;11.52;7.45;;;10.60;99.90;;;;;;5024754;28;20017;-66
2022/07/09 11:41:59;;;;;;;38.45;34.28;;;10.70;99.90;;;;;;5034634;28;20037;-67
2022/07/09 11:44:33;;;;;;;32.80;29.40;;;10.60;99.90;;;;;;5036723;28;20047;-67
2022/07/09 11:47:04;;;;;;;10.68;6.80;;;10.60;99.90;;;;;;5029964;28;20046;-67
2022/07/09 11:49:43;;;;;;;6.28;4.55;;;10.50;99.90;;;;;;5016831;28;20042;-67
2022/07/09 11:52:24;;;;;;;5.97;5.35;;;10.40;99.90;;;;;;5031866;28;20049;-68
2022/07/09 11:55:01;;;;;;;8.27;5.95;;;10.40;99.90;;;;;;5035853;28;20018;-67
2022/07/09 11:57:29;;;;;;;8.13;5.07;;;10.40;99.90;;;;;;5033264;28;20094;-67
2022/07/09 11:59:57;;;;;;;4.53;2.60;;;10.40;99.90;;;;;;5032647;28;20021;-67
2022/07/09 12:02:39;;;;;;;4.72;2.60;;;10.40;99.90;;;;;;5024171;28;20041;-66
2022/07/09 12:05:13;;;;;;;5.72;3.35;;;10.40;99.90;;;;;;5036336;28;20041;-67
2022/07/09 12:07:51;;;;;;;6.25;2.97;;;10.40;99.90;;;;;;5036258;28;20036;-67
2022/07/09 12:10:32;;;;;;;6.68;4.20;;;10.30;99.90;;;;;;5026334;28;20038;-68
2022/07/09 12:13:01;;;;;;;13.05;8.43;;;10.20;99.90;;;;;;5031049;28;20030;-67
2022/07/09 12:15:29;;;;;;;14.73;8.70;;;10.20;99.90;;;;;;5028280;28;20050;-68
2022/07/09 12:17:58;;;;;;;11.43;6.25;;;10.20;99.90;;;;;;5031329;28;20030;-67
2022/07/09 12:20:28;;;;;;;7.90;4.68;;;10.20;99.90;;;;;;5029413;28;20025;-67
2022/07/09 12:22:55;;;;;;;8.88;4.28;;;10.20;99.90;;;;;;5033441;28;20029;-66
2022/07/09 12:25:23;;;;;;;9.52;4.40;;;10.10;99.90;;;;;;5027923;28;20028;-67
2022/07/09 12:27:51;;;;;;;11.00;5.88;;;10.10;99.90;;;;;;5029407;28;20018;-66
2022/07/09 12:30:19;;;;;;;5.75;3.08;;;10.10;99.90;;;;;;5038174;28;20025;-67
2022/07/09 12:32:46;;;;;;;9.10;5.13;;;10.10;99.90;;;;;;5041670;28;20014;-67
2022/07/09 12:35:15;;;;;;;8.15;4.88;;;10.10;99.90;;;;;;5031830;28;20033;-67
2022/07/09 12:37:42;;;;;;;9.27;4.55;;;10.20;99.90;;;;;;5027885;28;20037;-67
2022/07/09 12:40:11;;;;;;;6.80;3.70;;;10.30;99.90;;;;;;5032382;28;20143;-67
2022/07/09 12:42:39;;;;;;;7.65;3.88;;;10.30;99.90;;;;;;5030177;28;20786;-66
2022/07/09 12:45:08;;;;;;;3.80;2.63;;;10.20;99.90;;;;;;5034314;28;20037;-66
2022/07/09 12:47:35;;;;;;;6.15;3.20;;;10.20;99.90;;;;;;5037049;28;20061;-65
2022/07/09 12:50:03;;;;;;;10.20;7.10;;;10.30;99.90;;;;;;5025597;28;20030;-65
2022/07/09 12:52:34;;;;;;;24.67;14.85;;;10.20;99.90;;;;;;5034435;28;20037;-66
2022/07/09 12:55:03;;;;;;;11.50;7.75;;;10.20;99.90;;;;;;5035738;28;20057;-66